ADDS METAR Data INFO
IDs: Format: Raw Decoded Include TAF

Data at: 2310 UTC 16 Jan 2018

KJHN 162255Z AUTO 00000KT 10SM CLR M04/M19 A3051 RMK AO2 T10361186
KJHN 162235Z AUTO 00000KT 10SM CLR M04/M19 A3051 RMK AO2 T10371187
KJHN 162215Z AUTO 34003KT 10SM CLR M04/M19 A3052 RMK AO2 T10401187
KJHN 162155Z AUTO 00000KT 10SM CLR M04/M19 A3052 RMK AO2 T10411188
KJHN 162135Z AUTO 30004KT 10SM CLR M04/M19 A3053 RMK AO2 T10401187
KJHN 162115Z AUTO 28005KT 10SM CLR M04/M19 A3054 RMK AO2 T10391187
KJHN 162055Z AUTO 31005KT 10SM CLR M04/M19 A3055 RMK AO2 T10431188
KJHN 162035Z AUTO 00000KT 10SM CLR M05/M20 A3055 RMK AO2 T10491196
KJHN 162015Z AUTO 00000KT 10SM CLR M05/M20 A3056 RMK AO2 T10511198
KJHN 161955Z AUTO 33003KT 10SM CLR M06/M20 A3057 RMK AO2 T10591202
KJHN 161935Z AUTO 36005KT 10SM CLR M06/M20 A3058 RMK AO2 T10631205
KJHN 161915Z AUTO 31003KT 10SM CLR M07/M20 A3059 RMK AO2 T10681202
KJHN 161855Z AUTO 33003KT 10SM CLR M07/M20 A3060 RMK AO2 T10721197
KJHN 161835Z AUTO 35005KT 10SM CLR M08/M19 A3062 RMK AO2 T10771192
KJHN 161815Z AUTO 32004KT 10SM CLR M08/M19 A3063 RMK AO2 T10821191
KJHN 161755Z AUTO 31004KT 10SM CLR M09/M19 A3065 RMK AO2 T10901186 11090 21196
KJHN 161735Z AUTO 33003KT 10SM CLR M10/M18 A3066 RMK AO2 T10961185
KJHN 161715Z AUTO 32006KT 10SM CLR M10/M19 A3067 RMK AO2 T11021186
KJHN 161655Z AUTO 31005KT 10SM CLR M11/M19 A3067 RMK AO2 T11071187
KJHN 161635Z AUTO 31005KT 10SM CLR M11/M19 A3068 RMK AO2 T11121187
KJHN 161615Z AUTO 32007KT 10SM CLR M12/M19 A3068 RMK AO2 T11221187
KJHN 161555Z AUTO 31006KT 10SM CLR M13/M19 A3068 RMK AO2 T11291186
KJHN 161535Z AUTO 32005KT 10SM CLR M14/M19 A3068 RMK AO2 T11411191
KJHN 161515Z AUTO 31006KT 10SM CLR M15/M20 A3067 RMK AO2 T11541199
KJHN 161455Z AUTO 29005KT 10SM CLR M17/M21 A3067 RMK AO2 T11721211
KJHN 161435Z AUTO 30004KT 10SM CLR M19/M22 A3068 RMK AO2 T11871221
KJHN 161415Z AUTO 29006KT 10SM CLR M19/M23 A3068 RMK AO2 T11941229
KJHN 161355Z AUTO 29008KT 10SM CLR M19/M23 A3068 RMK AO2 T11951229
KJHN 161335Z AUTO 29008KT 10SM CLR M19/M22 A3068 RMK AO2 T11901225
KJHN 161315Z AUTO 29007KT 10SM CLR M18/M22 A3067 RMK AO2 T11831220
KJHN 161255Z AUTO 28008KT 10SM CLR M18/M22 A3066 RMK AO2 T11831221
KJHN 161235Z AUTO 27008KT 10SM CLR M19/M22 A3066 RMK AO2 T11881225
KJHN 161215Z AUTO 28007KT 10SM CLR M19/M22 A3065 RMK AO2 T11871225
KJHN 161155Z AUTO 27008KT 10SM CLR M19/M22 A3065 RMK AO2 T11871224 11149 21199
KJHN 161135Z AUTO 28006KT 10SM CLR M19/M23 A3065 RMK AO2 T11941230
KJHN 161115Z AUTO 29006KT 10SM CLR M19/M23 A3065 RMK AO2 T11881228
KJHN 161055Z AUTO 29007KT 10SM CLR M19/M23 A3065 RMK AO2 T11891226
KJHN 161035Z AUTO 29007KT 10SM CLR M19/M23 A3065 RMK AO2 T11951233
KJHN 161015Z AUTO 29006KT 10SM CLR M19/M23 A3066 RMK AO2 T11931233
KJHN 160955Z AUTO 31005KT 10SM CLR M19/M23 A3067 RMK AO2 T11921231
KJHN 160935Z AUTO 28007KT 10SM CLR M19/M23 A3067 RMK AO2 T11901227
KJHN 160915Z AUTO 31007KT 10SM CLR M17/M22 A3067 RMK AO2 T11751225
KJHN 160855Z AUTO 27005KT 10SM CLR M19/M23 A3067 RMK AO2 T11861226
KJHN 160835Z AUTO 33007KT 10SM CLR M17/M21 A3066 RMK AO2 T11661213
KJHN 160815Z AUTO 35009KT 10SM CLR M16/M21 A3066 RMK AO2 T11631213
KJHN 160755Z AUTO 35009KT 10SM CLR M16/M21 A3066 RMK AO2 T11621215
KJHN 160735Z AUTO 35009KT 10SM CLR M16/M21 A3066 RMK AO2 T11641211
KJHN 160715Z AUTO 34010KT 10SM CLR M16/M21 A3066 RMK AO2 T11581207
KJHN 160655Z AUTO 34010KT 10SM CLR M15/M20 A3067 RMK AO2 T11551205
KJHN 160635Z AUTO 33007KT 10SM CLR M16/M21 A3068 RMK AO2 T11611206
KJHN 160615Z AUTO 31004KT 10SM CLR M16/M20 A3068 RMK AO2 T11621205
KJHN 160555Z AUTO 34008KT 10SM CLR M15/M20 A3067 RMK AO2 T11511200 11077 21152 400001152
KJHN 160535Z AUTO 36009KT 10SM CLR M15/M20 A3066 RMK AO2 T11491200
KJHN 160515Z AUTO 35010KT 10SM CLR M14/M20 A3067 RMK AO2 T11451200
KJHN 160455Z AUTO 36009KT 10SM CLR M14/M20 A3066 RMK AO2 T11411200
KJHN 160435Z AUTO 36010KT 10SM CLR M14/M20 A3066 RMK AO2 T11411200
KJHN 160415Z AUTO 01011KT 10SM CLR M14/M20 A3065 RMK AO2 T11381200
KJHN 160355Z AUTO 01011KT 10SM CLR M13/M20 A3065 RMK AO2 T11321198
KJHN 160335Z AUTO 01011KT 10SM CLR M13/M20 A3064 RMK AO2 T11301198
KJHN 160315Z AUTO 01013KT 10SM CLR M13/M20 A3063 RMK AO2 T11271199
KJHN 160255Z AUTO 02012KT 10SM CLR M12/M20 A3062 RMK AO2 T11251198
KJHN 160235Z AUTO 03010KT 10SM CLR M12/M19 A3062 RMK AO2 T11171195
KJHN 160215Z AUTO 36005KT 10SM CLR M11/M20 A3061 RMK AO2 T11141198
KJHN 160155Z AUTO 01008KT 10SM CLR M11/M20 A3061 RMK AO2 T11061196
KJHN 160135Z AUTO 01011KT 10SM CLR M11/M19 A3060 RMK AO2 T11071192
KJHN 160115Z AUTO 35007KT 10SM CLR M10/M19 A3059 RMK AO2 T11001193
KJHN 160055Z AUTO 36010KT 10SM CLR M09/M19 A3058 RMK AO2 T10951191
KJHN 160035Z AUTO 01008KT 10SM CLR M09/M19 A3057 RMK AO2 T10941193
KJHN 160015Z AUTO 01009KT 10SM CLR M08/M19 A3056 RMK AO2 T10851190
KJHN 152355Z AUTO 01009KT 10SM CLR M08/M18 A3055 RMK AO2 T10761180 11040 21076
KJHN 152335Z AUTO 35013G19KT 10SM SCT110 M06/M17 A3054 RMK AO2 T10651175
KJHN 152315Z AUTO 36014G19KT 10SM SCT110 M05/M17 A3053 RMK AO2 T10501167
KJHN 152255Z AUTO 36011G18KT 10SM CLR M05/M16 A3052 RMK AO2 T10461165
KJHN 152235Z AUTO 35014KT 10SM CLR M04/M16 A3052 RMK AO2 T10441163
KJHN 152215Z AUTO 34007G11KT 10SM CLR M04/M16 A3051 RMK AO2 T10441164
KJHN 152155Z AUTO 01012G17KT 10SM CLR M04/M16 A3050 RMK AO2 T10421164
KJHN 152135Z AUTO 35012G18KT 10SM SCT075 M04/M17 A3050 RMK AO2 T10401166
KJHN 152115Z AUTO 01011G17KT 10SM OVC075 M05/M15 A3050 RMK AO2 T10491152
KJHN 152055Z AUTO 36012KT 10SM OVC065 M04/M14 A3049 RMK AO2 T10421143
KJHN 152035Z AUTO 34009G14KT 10SM SCT029 OVC065 M05/M13 A3049 RMK AO2 T10511127
KJHN 152015Z AUTO 35011KT 10SM SCT024 SCT030 OVC065 M05/M13 A3049 RMK AO2 T10541130
KJHN 151955Z AUTO 35009KT 10SM SCT026 OVC065 M06/M12 A3049 RMK AO2 T10571121
KJHN 151935Z AUTO 01010KT 10SM OVC065 M06/M13 A3050 RMK AO2 T10581127
KJHN 151915Z AUTO 36010G16KT 10SM OVC065 M06/M13 A3051 RMK AO2 T10601130
KJHN 151855Z AUTO 36013KT 10SM OVC065 M06/M14 A3052 RMK AO2 T10621136
KJHN 151835Z AUTO 01013KT 10SM OVC065 M06/M14 A3052 RMK AO2 T10581141
KJHN 151815Z AUTO 01013KT 10SM OVC065 M06/M14 A3053 RMK AO2 T10581140
KJHN 151755Z AUTO 01012G15KT 10SM OVC065 M06/M13 A3053 RMK AO2 T10571132 11015 21057
KJHN 151735Z AUTO 01013KT 10SM SCT020 OVC065 M05/M13 A3053 RMK AO2 T10551126
KJHN 151715Z AUTO 02013KT 10SM BKN020 OVC065 M06/M13 A3054 RMK AO2 T10561129
KJHN 151655Z AUTO 03017KT 10SM BKN020 OVC065 M05/M13 A3053 RMK AO2 T10521127
KJHN 151635Z AUTO 02016KT 10SM OVC021 M05/M12 A3052 RMK AO2 T10551125
KJHN 151555Z AUTO 03016G22KT 10SM OVC016 M05/M10 A3049 RMK AO2 T10521105
KJHN 151535Z AUTO 03018G22KT 10SM OVC016 M05/M10 A3047 RMK AO2 T10501100
KJHN 151515Z AUTO 03014KT 10SM OVC012 M04/M08 A3045 RMK AO2 T10421078
KJHN 151455Z AUTO 03016KT 10SM OVC010 M04/M06 A3044 RMK AO2 T10401065
KJHN 151435Z AUTO 03015KT 10SM OVC010 M04/M06 A3042 RMK AO2 T10381061
KJHN 151415Z AUTO 04015KT 10SM OVC013 M03/M06 A3040 RMK AO2 T10331056
KJHN 151355Z AUTO 02013KT 10SM OVC013 M03/M05 A3039 RMK AO2 T10261055
KJHN 151335Z AUTO 03016G21KT 10SM BKN008 OVC012 M02/M04 A3038 RMK AO2 T10251043
KJHN 151315Z AUTO 03012G18KT 10SM OVC008 M02/M04 A3037 RMK AO2 T10181036
KJHN 151255Z AUTO 03015KT 10SM OVC008 M02/M03 A3035 RMK AO2 T10171035
KJHN 151235Z AUTO 03015G22KT 10SM OVC008 M01/M03 A3033 RMK AO2 T10151035
KJHN 151215Z AUTO 03018G25KT 10SM OVC008 M01/M03 A3032 RMK AO2 T10151032
KJHN 151155Z AUTO 04018G25KT 10SM OVC010 M01/M03 A3029 RMK AO2 T10151034 10000 21061
KJHN 151135Z AUTO 04018G24KT 10SM OVC008 M01/M03 A3027 RMK AO2 T10061026
KJHN 151115Z AUTO 03015KT 10SM OVC008 M01/M02 A3027 RMK AO2 T10061025